Time;durP1;ratioP1;P1;durP2;ratioP2;P2;SDS_P1;SDS_P2;PMS_P1;PMS_P2;Temp;Humidity;BMP_temperature;BMP_pressure;BME280_temperature;BME280_humidity;BME280_pressure;Samples;Min_cycle;Max_cycle;Signal;HPM_P1;HPM_P2
2022/11/20 00:04:01;;;;;;;54.40;27.97;;;-1.00;1.00;;;;;;10284642;28;20197;-85
2022/11/20 00:09:22;;;;;;;42.77;25.00;;;-1.00;1.00;;;;;;10300885;28;20197;-86
2022/11/20 00:14:44;;;;;;;35.63;21.50;;;-1.00;1.00;;;;;;10297805;28;20434;-79
2022/11/20 00:20:05;;;;;;;38.37;21.73;;;-1.00;1.00;;;;;;10331763;28;20281;-86
2022/11/20 00:25:26;;;;;;;40.33;23.00;;;-1.00;1.00;;;;;;10323829;28;20227;-87
2022/11/20 00:30:48;;;;;;;35.27;21.57;;;-0.90;1.00;;;;;;10359672;28;20199;-85
2022/11/20 00:36:12;;;;;;;53.33;29.23;;;-0.90;1.00;;;;;;10329118;28;20199;-81
2022/11/20 00:41:34;;;;;;;51.37;29.07;;;-0.90;1.00;;;;;;10331518;28;20392;-80
2022/11/20 00:46:55;;;;;;;56.70;28.33;;;-0.90;1.00;;;;;;10362333;28;20194;-82
2022/11/20 00:52:16;;;;;;;60.30;30.60;;;-1.00;1.00;;;;;;10377506;28;20215;-80
2022/11/20 00:57:37;;;;;;;46.17;25.20;;;-1.00;1.00;;;;;;10330765;28;20243;-83
2022/11/20 01:02:59;;;;;;;43.00;25.40;;;-0.90;1.00;;;;;;10289890;28;20213;-87
2022/11/20 01:08:20;;;;;;;44.80;26.33;;;-1.00;1.00;;;;;;10306747;28;20200;-79
2022/11/20 01:13:42;;;;;;;41.97;23.23;;;-1.10;1.00;;;;;;10290469;28;20247;-78
2022/11/20 01:19:06;;;;;;;36.33;22.20;;;-1.10;1.00;;;;;;10313044;28;20226;-78
2022/11/20 01:24:27;;;;;;;32.83;19.20;;;-1.10;1.00;;;;;;10365990;28;20190;-80
2022/11/20 01:29:48;;;;;;;34.87;20.70;;;-1.20;1.00;;;;;;10383932;28;20194;-79
2022/11/20 01:35:10;;;;;;;29.97;20.10;;;-1.20;1.00;;;;;;10340937;28;20196;-86
2022/11/20 01:40:30;;;;;;;31.23;18.63;;;-1.20;1.00;;;;;;10342517;28;20230;-78
2022/11/20 01:46:18;;;;;;;25.23;16.73;;;-1.20;1.00;;;;;;10328897;28;20240;-78
2022/11/20 01:51:45;;;;;;;28.57;18.40;;;-1.30;1.00;;;;;;10328725;28;20207;-78
2022/11/20 01:57:09;;;;;;;24.27;16.33;;;-1.50;1.00;;;;;;10345118;28;20235;-78
2022/11/20 02:02:31;;;;;;;30.20;17.37;;;-1.60;1.00;;;;;;10348765;28;20242;-86
2022/11/20 02:07:54;;;;;;;34.37;19.73;;;-1.70;1.00;;;;;;10331070;28;20227;-85
2022/11/20 02:18:58;;;;;;;26.33;16.73;;;-1.60;1.00;;;;;;10341169;28;20238;-82
2022/11/20 02:24:22;;;;;;;35.70;19.40;;;-1.70;1.00;;;;;;10314000;28;20194;-88
2022/11/20 02:30:12;;;;;;;28.27;17.47;;;-1.60;1.00;;;;;;10354163;28;20207;-78
2022/11/20 02:35:33;;;;;;;34.03;21.73;;;-1.60;1.00;;;;;;10344501;28;20199;-81
2022/11/20 02:40:54;;;;;;;36.70;23.00;;;-1.60;1.00;;;;;;10343509;28;20290;-86
2022/11/20 02:46:16;;;;;;;36.53;20.80;;;-1.60;1.00;;;;;;10340103;28;20197;-80
2022/11/20 02:51:37;;;;;;;31.83;18.10;;;-1.60;1.00;;;;;;10313096;28;20206;-85
2022/11/20 02:56:58;;;;;;;29.33;18.07;;;-1.60;1.00;;;;;;10329116;28;20226;-79
2022/11/20 03:02:20;;;;;;;32.27;19.50;;;-1.60;1.00;;;;;;10317946;28;20503;-78
2022/11/20 03:07:43;;;;;;;38.37;22.83;;;-1.60;1.00;;;;;;10302427;28;20427;-79
2022/11/20 03:13:04;;;;;;;41.87;24.87;;;-1.60;1.00;;;;;;10288842;28;20262;-78
2022/11/20 03:18:28;;;;;;;40.30;23.93;;;-1.70;1.00;;;;;;10342072;28;20236;-78
2022/11/20 03:23:49;;;;;;;42.70;26.10;;;-1.70;1.00;;;;;;10328697;28;20212;-84
2022/11/20 03:29:11;;;;;;;52.07;26.97;;;-1.70;1.00;;;;;;10346136;28;20219;-78
2022/11/20 03:34:32;;;;;;;49.67;28.13;;;-1.70;1.00;;;;;;10355143;28;20194;-78
2022/11/20 03:39:53;;;;;;;49.10;27.40;;;-1.70;1.00;;;;;;10325124;28;20227;-86
2022/11/20 03:45:16;;;;;;;46.40;27.20;;;-1.60;1.00;;;;;;10325419;28;20195;-80
2022/11/20 03:50:37;;;;;;;52.57;28.23;;;-1.60;1.00;;;;;;10332257;28;20269;-82
2022/11/20 03:55:59;;;;;;;48.77;26.40;;;-1.50;1.00;;;;;;10342362;28;20283;-81
2022/11/20 04:01:26;;;;;;;50.63;28.23;;;-1.50;1.00;;;;;;10311095;28;20239;-88
2022/11/20 04:06:47;;;;;;;42.87;25.47;;;-1.50;1.00;;;;;;10271194;28;20238;-86
2022/11/20 04:12:08;;;;;;;50.07;27.57;;;-1.50;1.00;;;;;;10300781;28;20203;-86
2022/11/20 04:17:30;;;;;;;49.33;27.40;;;-1.40;1.00;;;;;;10318758;28;20201;-78
2022/11/20 04:22:54;;;;;;;45.93;26.20;;;-1.40;1.00;;;;;;10363282;28;20486;-78
2022/11/20 04:28:15;;;;;;;50.10;28.80;;;-1.40;1.00;;;;;;10346870;28;20274;-84
2022/11/20 04:33:37;;;;;;;49.87;27.90;;;-1.40;1.00;;;;;;10355750;28;20222;-78
2022/11/20 04:39:01;;;;;;;53.23;29.03;;;-1.40;1.00;;;;;;10331553;28;20236;-80
2022/11/20 04:44:23;;;;;;;51.00;28.27;;;-1.30;1.00;;;;;;10318043;28;20199;-85
2022/11/20 04:49:44;;;;;;;51.90;29.33;;;-1.30;1.00;;;;;;10347427;28;20195;-80
2022/11/20 04:55:06;;;;;;;50.80;26.97;;;-1.40;1.00;;;;;;10331167;28;20246;-78
2022/11/20 05:00:27;;;;;;;56.47;29.47;;;-1.50;1.00;;;;;;10337505;28;20247;-80
2022/11/20 05:05:48;;;;;;;54.33;31.00;;;-1.50;1.00;;;;;;10290452;28;20199;-81
2022/11/20 05:11:12;;;;;;;49.43;27.40;;;-1.50;1.00;;;;;;10290464;28;20474;-82
2022/11/20 05:16:35;;;;;;;43.77;25.63;;;-1.40;1.00;;;;;;10293014;28;20207;-80
2022/11/20 05:21:56;;;;;;;49.00;26.03;;;-1.50;1.00;;;;;;10329398;28;20236;-78
2022/11/20 05:27:18;;;;;;;48.23;24.97;;;-1.50;1.00;;;;;;10337381;28;20186;-79
2022/11/20 05:32:39;;;;;;;54.90;29.17;;;-1.50;1.00;;;;;;10365115;28;20240;-80
2022/11/20 05:38:00;;;;;;;58.73;28.40;;;-1.50;1.00;;;;;;10316489;28;20280;-80
2022/11/20 05:43:21;;;;;;;51.37;28.10;;;-1.50;1.00;;;;;;10332095;28;20199;-80
2022/11/20 05:48:44;;;;;;;55.87;28.30;;;-1.70;1.00;;;;;;10339507;28;20208;-81
2022/11/20 05:54:05;;;;;;;63.40;33.57;;;-1.80;1.00;;;;;;10334908;28;20281;-81
2022/11/20 05:59:26;;;;;;;55.73;29.17;;;-1.80;1.00;;;;;;10332760;28;20239;-80
2022/11/20 06:04:48;;;;;;;59.10;28.10;;;-1.80;1.00;;;;;;10346008;28;20199;-88
2022/11/20 06:10:09;;;;;;;56.70;27.80;;;-1.90;1.00;;;;;;10329132;28;20209;-88
2022/11/20 06:15:30;;;;;;;56.17;29.00;;;-1.90;1.00;;;;;;10331333;28;20215;-85
2022/11/20 06:21:00;;;;;;;50.33;27.30;;;-1.90;1.00;;;;;;10338338;28;20201;-78
2022/11/20 06:26:24;;;;;;;55.87;26.93;;;-1.90;1.00;;;;;;10367002;28;20199;-80
2022/11/20 06:31:45;;;;;;;83.47;40.63;;;-1.90;1.00;;;;;;10331031;28;20196;-78
2022/11/20 06:37:06;;;;;;;81.40;40.00;;;-1.90;1.00;;;;;;10342623;28;20193;-80
2022/11/20 06:42:27;;;;;;;95.27;48.73;;;-1.90;1.00;;;;;;10313259;28;20549;-87
2022/11/20 06:47:48;;;;;;;77.40;41.13;;;-1.80;1.00;;;;;;10340061;28;20514;-78
2022/11/20 06:53:09;;;;;;;75.47;37.40;;;-1.80;1.00;;;;;;10329274;28;20198;-78
2022/11/20 06:58:32;;;;;;;79.27;40.90;;;-1.80;1.00;;;;;;10326051;28;20250;-78
2022/11/20 07:03:54;;;;;;;153.10;57.87;;;-1.80;1.00;;;;;;10315859;28;20375;-86
2022/11/20 07:09:16;;;;;;;101.53;45.67;;;-1.70;1.00;;;;;;10302379;28;20261;-78
2022/11/20 07:14:37;;;;;;;111.77;48.87;;;-1.70;1.00;;;;;;10288457;28;20515;-84
2022/11/20 07:19:58;;;;;;;96.97;42.53;;;-1.70;1.00;;;;;;10318398;28;20238;-87
2022/11/20 07:25:19;;;;;;;102.13;41.73;;;-1.60;1.00;;;;;;10341501;28;20400;-81
2022/11/20 07:30:41;;;;;;;98.40;42.67;;;-1.60;1.00;;;;;;10292914;28;20200;-87
2022/11/20 07:36:02;;;;;;;94.27;35.53;;;-1.60;1.00;;;;;;10336898;28;20195;-86
2022/11/20 07:41:24;;;;;;;92.17;39.93;;;-1.60;1.00;;;;;;10341495;28;20478;-86
2022/11/20 07:46:46;;;;;;;91.80;44.27;;;-1.50;1.00;;;;;;10338676;28;20253;-81
2022/11/20 07:52:07;;;;;;;101.83;57.33;;;-1.30;1.00;;;;;;10328424;28;20258;-85
2022/11/20 07:57:28;;;;;;;258.33;86.07;;;-1.10;1.00;;;;;;10324835;28;20230;-86
2022/11/20 08:02:50;;;;;;;289.47;103.33;;;-1.00;1.00;;;;;;10311685;28;20250;-87
2022/11/20 08:08:11;;;;;;;232.80;85.50;;;-1.00;1.00;;;;;;10285245;28;20501;-83
2022/11/20 08:19:17;;;;;;;123.27;62.63;;;-0.90;1.00;;;;;;10341832;28;20231;-80
2022/11/20 08:24:38;;;;;;;101.37;54.67;;;-0.70;1.00;;;;;;10338001;28;20278;-78
2022/11/20 08:29:59;;;;;;;87.03;43.50;;;-0.60;1.00;;;;;;10325215;28;20199;-80
2022/11/20 08:35:21;;;;;;;75.40;37.43;;;-0.50;1.00;;;;;;10324762;28;20206;-79
2022/11/20 08:41:23;;;;;;;78.90;38.00;;;-0.50;1.00;;;;;;10333143;28;20279;-79
2022/11/20 08:46:26;;;;;;;87.40;40.10;;;-0.50;1.00;;;;;;10350989;28;20194;-82
2022/11/20 08:51:51;;;;;;;105.07;46.33;;;-0.50;1.00;;;;;;10340679;28;20199;-79
2022/11/20 08:57:12;;;;;;;101.00;45.93;;;-0.50;1.00;;;;;;10341542;28;20235;-86
2022/11/20 09:02:34;;;;;;;77.60;37.13;;;-0.40;1.00;;;;;;10310282;28;20295;-84
2022/11/20 09:07:59;;;;;;;96.90;42.37;;;-0.20;1.00;;;;;;10293071;28;20226;-87
2022/11/20 09:13:22;;;;;;;92.17;44.57;;;-0.30;1.00;;;;;;10306832;28;20190;-81
2022/11/20 09:18:43;;;;;;;936.40;518.80;;;-0.20;1.00;;;;;;10326406;28;20227;-87
2022/11/20 09:24:05;;;;;;;1058.90;623.77;;;-0.30;1.00;;;;;;10346145;28;20267;-86
2022/11/20 09:29:26;;;;;;;236.30;129.33;;;-0.20;1.00;;;;;;10354616;28;20203;-79
2022/11/20 09:34:47;;;;;;;308.77;173.43;;;-0.10;1.00;;;;;;10330479;28;20393;-87
2022/11/20 09:40:20;;;;;;;226.83;129.73;;;0.00;1.00;;;;;;10360180;28;20228;-78
2022/11/20 09:46:04;;;;;;;485.37;278.33;;;0.10;1.00;;;;;;10345523;28;20259;-79
2022/11/20 09:51:43;;;;;;;225.10;136.00;;;0.20;1.00;;;;;;10331359;28;20219;-80
2022/11/20 09:57:37;;;;;;;112.57;57.40;;;0.30;1.00;;;;;;10314660;28;20239;-86
2022/11/20 10:03:02;;;;;;;103.23;44.03;;;0.50;1.00;;;;;;10299283;28;20232;-80
2022/11/20 10:08:48;;;;;;;72.10;34.93;;;0.50;1.00;;;;;;10287874;28;20205;-83
2022/11/20 10:14:47;;;;;;;48.80;27.50;;;0.50;1.00;;;;;;10290863;28;20259;-86
2022/11/20 10:20:29;;;;;;;67.20;32.90;;;0.50;1.00;;;;;;10318632;28;20259;-78
2022/11/20 10:26:29;;;;;;;66.77;34.57;;;0.40;1.00;;;;;;10324598;28;20563;-80
2022/11/20 10:32:18;;;;;;;135.07;59.00;;;0.40;1.00;;;;;;10305199;28;20193;-78
2022/11/20 10:37:44;;;;;;;151.87;98.63;;;0.50;1.00;;;;;;10343139;28;20432;-82
2022/11/20 10:43:28;;;;;;;58.23;32.60;;;0.50;1.00;;;;;;10326922;28;20402;-86
2022/11/20 10:48:49;;;;;;;54.23;28.50;;;0.50;1.00;;;;;;10326239;28;20465;-80
2022/11/20 10:54:24;;;;;;;59.93;29.77;;;0.50;1.00;;;;;;10328150;28;20202;-80
2022/11/20 11:00:01;;;;;;;59.47;31.57;;;0.50;1.00;;;;;;10343369;28;20334;-78
2022/11/20 11:05:46;;;;;;;55.13;28.37;;;0.50;1.00;;;;;;10300258;28;20437;-78
2022/11/20 11:11:23;;;;;;;52.23;26.67;;;0.60;1.00;;;;;;10303657;28;20420;-80
2022/11/20 11:17:20;;;;;;;60.83;31.23;;;0.80;1.00;;;;;;10314082;28;20212;-79
2022/11/20 11:22:50;;;;;;;44.63;25.63;;;0.70;1.00;;;;;;10325255;28;20403;-79
2022/11/20 11:28:17;;;;;;;46.83;25.70;;;0.70;1.00;;;;;;10339690;28;20223;-86
2022/11/20 11:33:38;;;;;;;54.30;28.53;;;0.60;1.00;;;;;;10335527;28;20199;-88
2022/11/20 11:39:01;;;;;;;54.90;29.33;;;0.60;1.00;;;;;;10325568;28;20225;-79
2022/11/20 11:50:18;;;;;;;44.80;27.30;;;0.70;1.00;;;;;;10325020;28;20205;-81
2022/11/20 11:56:07;;;;;;;40.70;23.30;;;0.70;1.00;;;;;;10341789;28;20379;-78
2022/11/20 12:01:53;;;;;;;53.50;29.03;;;0.50;1.00;;;;;;10286918;28;20249;-87
2022/11/20 12:07:39;;;;;;;58.93;33.07;;;0.50;1.00;;;;;;10260916;29;20205;-79
2022/11/20 12:13:19;;;;;;;48.83;28.80;;;0.60;1.00;;;;;;10262176;29;20302;-81
2022/11/20 12:18:42;;;;;;;45.17;27.10;;;0.50;1.00;;;;;;10293077;28;20220;-78
2022/11/20 12:24:32;;;;;;;48.97;26.97;;;0.40;1.00;;;;;;10300162;28;20205;-79
2022/11/20 12:30:07;;;;;;;85.93;35.93;;;0.40;1.00;;;;;;10317692;28;20311;-88
2022/11/20 12:36:20;;;;;;;40.97;23.43;;;0.40;1.00;;;;;;10302214;28;20198;-86
2022/11/20 12:47:42;;;;;;;43.20;23.83;;;0.30;1.00;;;;;;10265311;29;20212;-86
2022/11/20 12:53:42;;;;;;;39.73;24.37;;;0.30;1.00;;;;;;10262558;29;20285;-79
2022/11/20 12:59:21;;;;;;;40.93;24.50;;;0.40;1.00;;;;;;10282794;28;20310;-85
2022/11/20 13:05:00;;;;;;;41.13;23.87;;;0.40;1.00;;;;;;10226294;29;20243;-82
2022/11/20 13:10:36;;;;;;;41.30;24.03;;;0.30;1.00;;;;;;10223641;29;20247;-77
2022/11/20 13:16:39;;;;;;;42.20;24.30;;;0.30;1.00;;;;;;10257036;29;20214;-78
2022/11/20 13:22:01;;;;;;;53.20;30.07;;;0.30;1.00;;;;;;10282200;28;20299;-79
2022/11/20 13:27:23;;;;;;;44.63;24.90;;;0.30;1.00;;;;;;10304912;28;20209;-86
2022/11/20 13:32:52;;;;;;;49.73;28.07;;;0.30;1.00;;;;;;10332307;28;20281;-80
2022/11/20 13:38:14;;;;;;;50.00;28.40;;;0.20;1.00;;;;;;10335698;28;20550;-78
2022/11/20 13:43:40;;;;;;;52.13;27.77;;;0.20;9.90;;;;;;10305302;28;20547;-79
2022/11/20 13:49:09;;;;;;;55.33;31.93;;;0.20;21.30;;;;;;10319581;28;20205;-78
2022/11/20 13:54:51;;;;;;;47.33;26.10;;;0.20;1.00;;;;;;10305973;28;20243;-79
2022/11/20 14:00:17;;;;;;;47.70;27.40;;;0.30;1.00;;;;;;10313572;28;20792;-83
2022/11/20 14:05:48;;;;;;;43.17;24.83;;;0.30;1.00;;;;;;10252269;29;20276;-78
2022/11/20 14:11:33;;;;;;;38.10;22.33;;;0.30;1.00;;;;;;10265220;29;20221;-78
2022/11/20 14:17:16;;;;;;;32.13;20.43;;;0.30;1.00;;;;;;10283490;28;20496;-78
2022/11/20 14:22:38;;;;;;;39.20;21.20;;;0.20;4.30;;;;;;10290149;28;20232;-85
2022/11/20 14:28:01;;;;;;;32.43;19.90;;;0.10;5.90;;;;;;10306273;28;20237;-80
2022/11/20 14:33:25;;;;;;;31.93;19.63;;;0.10;5.80;;;;;;10329618;28;20196;-80
2022/11/20 14:38:46;;;;;;;29.40;18.63;;;0.00;2.90;;;;;;10302820;28;20384;-78
2022/11/20 14:44:09;;;;;;;26.97;16.90;;;0.00;14.40;;;;;;10302619;28;20238;-78
2022/11/20 14:49:32;;;;;;;27.70;17.47;;;-0.10;8.50;;;;;;10289305;28;20276;-85
2022/11/20 14:54:55;;;;;;;34.73;22.47;;;-0.10;8.80;;;;;;10315011;28;20500;-79
2022/11/20 15:00:19;;;;;;;37.23;23.83;;;-0.20;29.80;;;;;;10284380;28;20548;-79
2022/11/20 15:05:49;;;;;;;38.90;22.93;;;-0.20;23.80;;;;;;10279363;29;20529;-78
2022/11/20 15:11:20;;;;;;;38.33;22.40;;;-0.20;28.40;;;;;;10263886;29;20216;-85
2022/11/20 15:16:41;;;;;;;30.73;19.00;;;-0.10;20.20;;;;;;10268599;28;20204;-84
2022/11/20 15:22:04;;;;;;;35.17;23.27;;;-0.20;48.70;;;;;;10304478;28;20225;-79
2022/11/20 15:27:25;;;;;;;31.13;19.97;;;-0.20;46.80;;;;;;10296321;28;20201;-78
2022/11/20 15:32:47;;;;;;;35.23;23.47;;;-0.20;77.80;;;;;;10333091;28;20429;-84
2022/11/20 15:38:08;;;;;;;45.87;26.60;;;-0.10;33.00;;;;;;10315442;28;20200;-78
2022/11/20 15:43:29;;;;;;;46.87;26.47;;;-0.20;37.50;;;;;;10301749;28;20246;-85
2022/11/20 15:48:56;;;;;;;49.33;26.43;;;-0.20;33.70;;;;;;10303409;28;20206;-78
2022/11/20 15:54:20;;;;;;;48.13;25.03;;;-0.20;24.20;;;;;;10301121;28;20282;-78
2022/11/20 15:59:42;;;;;;;70.57;28.47;;;-0.20;39.70;;;;;;10325858;28;20243;-78
2022/11/20 16:05:04;;;;;;;76.50;33.33;;;-0.20;24.60;;;;;;10298910;28;20260;-78
2022/11/20 16:10:25;;;;;;;64.33;32.50;;;-0.10;51.30;;;;;;10293138;28;20201;-83
2022/11/20 16:15:52;;;;;;;58.10;29.23;;;-0.10;65.20;;;;;;10292551;28;20205;-80
2022/11/20 16:21:13;;;;;;;71.23;33.93;;;-0.10;40.30;;;;;;10332181;28;20350;-79
2022/11/20 16:26:35;;;;;;;58.20;29.07;;;-0.10;43.90;;;;;;10333984;28;20278;-86
2022/11/20 16:31:57;;;;;;;72.00;37.23;;;0.00;17.30;;;;;;10373271;28;20200;-88
2022/11/20 16:37:18;;;;;;;57.80;30.10;;;0.10;13.80;;;;;;10332108;28;20216;-86
2022/11/20 16:42:39;;;;;;;52.03;29.60;;;0.10;4.40;;;;;;10335682;28;20475;-85
2022/11/20 16:48:00;;;;;;;76.70;35.37;;;0.10;10.80;;;;;;10332135;28;20239;-82
2022/11/20 16:53:22;;;;;;;134.63;56.43;;;0.20;5.20;;;;;;10331331;28;20208;-78
2022/11/20 16:58:48;;;;;;;80.67;38.27;;;0.10;2.90;;;;;;10340003;28;20240;-79
2022/11/20 17:04:09;;;;;;;52.00;32.83;;;0.20;1.00;;;;;;10344942;28;20286;-78
2022/11/20 17:09:31;;;;;;;61.33;33.67;;;0.20;1.00;;;;;;10344359;28;20276;-79
2022/11/20 17:14:52;;;;;;;63.60;36.80;;;0.20;1.00;;;;;;10331092;28;20391;-78
2022/11/20 17:20:13;;;;;;;62.37;37.60;;;0.20;1.00;;;;;;10329310;28;20239;-79
2022/11/20 17:25:34;;;;;;;87.47;50.13;;;0.30;1.00;;;;;;10347192;28;20205;-82
2022/11/20 17:31:04;;;;;;;72.17;39.13;;;0.30;1.00;;;;;;10383828;28;20197;-86
2022/11/20 17:36:26;;;;;;;62.73;35.27;;;0.20;1.00;;;;;;10332087;28;20198;-85
2022/11/20 17:42:25;;;;;;;62.73;35.47;;;0.30;1.00;;;;;;10333406;28;20438;-83
2022/11/20 17:47:28;;;;;;;66.23;41.80;;;0.30;1.00;;;;;;10344044;28;20233;-80
2022/11/20 17:52:50;;;;;;;72.03;42.30;;;0.20;1.00;;;;;;10346056;28;20590;-82
2022/11/20 17:58:11;;;;;;;72.63;42.23;;;0.20;1.00;;;;;;10334267;28;20243;-80
2022/11/20 18:03:32;;;;;;;65.63;37.93;;;0.20;1.00;;;;;;10298593;28;20523;-85
2022/11/20 18:09:01;;;;;;;60.70;35.23;;;0.20;1.00;;;;;;10291993;28;20236;-80
2022/11/20 18:14:27;;;;;;;62.20;37.27;;;0.20;1.00;;;;;;10289364;28;20279;-80
2022/11/20 18:19:49;;;;;;;53.23;32.80;;;0.10;1.00;;;;;;10334083;28;20246;-83
2022/11/20 18:25:26;;;;;;;62.53;38.77;;;0.10;1.00;;;;;;10334124;28;20368;-86
2022/11/20 18:30:48;;;;;;;57.07;34.00;;;0.10;1.00;;;;;;10355130;28;20195;-80
2022/11/20 18:36:10;;;;;;;71.97;39.07;;;0.20;1.00;;;;;;10353186;28;20282;-80
2022/11/20 18:47:23;;;;;;;68.07;35.77;;;0.20;3.50;;;;;;10326738;28;20203;-79
2022/11/20 18:52:45;;;;;;;51.50;30.47;;;0.30;1.00;;;;;;10326857;28;20395;-86
2022/11/20 18:58:06;;;;;;;58.73;35.00;;;0.30;1.00;;;;;;10346970;28;20929;-80
2022/11/20 19:03:27;;;;;;;48.10;29.97;;;0.20;1.00;;;;;;10314188;28;20550;-85
2022/11/20 19:08:49;;;;;;;50.30;29.67;;;0.30;1.00;;;;;;10273616;28;20197;-86
2022/11/20 19:14:10;;;;;;;42.47;26.53;;;0.20;1.00;;;;;;10285642;28;20205;-80
2022/11/20 19:19:33;;;;;;;45.97;28.97;;;0.20;1.00;;;;;;10329710;28;20224;-80
2022/11/20 19:24:54;;;;;;;45.47;28.40;;;0.20;1.00;;;;;;10325839;28;20227;-79
2022/11/20 19:30:16;;;;;;;45.73;26.80;;;0.20;1.00;;;;;;10363683;28;20201;-79
2022/11/20 19:35:37;;;;;;;60.13;32.83;;;0.10;1.00;;;;;;10320126;28;20279;-87
2022/11/20 19:40:59;;;;;;;68.63;35.33;;;0.20;2.20;;;;;;10327587;28;20223;-79
2022/11/20 19:46:20;;;;;;;62.93;32.03;;;0.30;1.00;;;;;;10324758;28;20201;-80
2022/11/20 19:51:46;;;;;;;50.63;28.27;;;0.20;1.00;;;;;;10325368;28;20203;-85
2022/11/20 19:57:08;;;;;;;46.33;26.47;;;0.20;1.00;;;;;;10341629;28;20235;-79
2022/11/20 20:02:29;;;;;;;44.63;24.77;;;0.20;1.00;;;;;;10323872;28;20262;-83
2022/11/20 20:07:51;;;;;;;45.30;25.87;;;0.20;1.00;;;;;;10284778;28;20205;-79
2022/11/20 20:13:12;;;;;;;56.73;31.33;;;0.20;1.00;;;;;;10284647;28;20209;-80
2022/11/20 20:18:33;;;;;;;51.30;29.87;;;0.10;1.00;;;;;;10302364;28;20585;-80
2022/11/20 20:23:55;;;;;;;58.87;31.70;;;0.10;1.00;;;;;;10340687;28;20238;-79
2022/11/20 20:29:19;;;;;;;50.23;28.40;;;0.10;1.00;;;;;;10336667;28;20394;-78
2022/11/20 20:34:40;;;;;;;43.10;25.50;;;0.10;1.00;;;;;;10339181;28;20276;-79
2022/11/20 20:40:01;;;;;;;43.93;25.50;;;0.10;1.00;;;;;;10323686;28;20222;-82
2022/11/20 20:45:22;;;;;;;54.73;29.63;;;0.20;1.00;;;;;;10323834;28;20204;-80
2022/11/20 20:50:56;;;;;;;45.50;25.30;;;0.10;1.00;;;;;;10323963;28;20208;-78
2022/11/20 20:56:17;;;;;;;47.17;25.93;;;0.10;1.00;;;;;;10329412;28;20275;-78
2022/11/20 21:01:38;;;;;;;64.23;31.23;;;0.10;1.00;;;;;;10326086;28;20534;-78
2022/11/20 21:06:59;;;;;;;49.90;26.13;;;0.10;1.00;;;;;;10306909;28;20196;-87
2022/11/20 21:12:20;;;;;;;41.67;24.50;;;0.10;1.00;;;;;;10290499;28;20275;-85
2022/11/20 21:17:43;;;;;;;56.57;30.93;;;0.00;1.00;;;;;;10302651;28;20482;-85
2022/11/20 21:23:08;;;;;;;50.80;27.33;;;0.10;18.00;;;;;;10344122;28;20525;-86
2022/11/20 21:28:34;;;;;;;41.20;23.00;;;0.10;1.00;;;;;;10338995;28;20285;-78
2022/11/20 21:33:56;;;;;;;46.73;26.73;;;0.10;1.00;;;;;;10354077;28;20200;-85
2022/11/20 21:39:20;;;;;;;55.63;31.93;;;0.10;12.10;;;;;;10345872;28;20199;-81
2022/11/20 21:44:41;;;;;;;66.80;38.43;;;0.00;11.90;;;;;;10329031;28;20232;-84
2022/11/20 21:50:03;;;;;;;74.63;42.17;;;0.00;10.50;;;;;;10329135;28;20414;-84
2022/11/20 21:55:24;;;;;;;71.97;38.57;;;0.10;13.70;;;;;;10328928;28;20204;-81
2022/11/20 22:00:45;;;;;;;48.60;25.10;;;0.20;13.00;;;;;;10328672;28;20243;-79
2022/11/20 22:06:08;;;;;;;50.27;28.27;;;0.20;1.30;;;;;;10319226;28;20193;-87
2022/11/20 22:11:29;;;;;;;44.87;25.50;;;0.20;1.00;;;;;;10274879;28;20203;-85
2022/11/20 22:16:52;;;;;;;37.30;22.83;;;0.10;1.00;;;;;;10293082;28;20201;-80
2022/11/20 22:22:13;;;;;;;34.57;21.40;;;0.20;1.00;;;;;;10327834;28;20561;-81
2022/11/20 22:27:34;;;;;;;36.23;22.27;;;0.20;1.00;;;;;;10339569;28;20200;-83
2022/11/20 22:32:56;;;;;;;45.63;25.73;;;0.10;1.00;;;;;;10357050;28;20212;-86
2022/11/20 22:38:17;;;;;;;56.07;31.57;;;0.10;1.00;;;;;;10327171;28;20212;-83
2022/11/20 22:43:39;;;;;;;46.97;24.33;;;0.20;3.10;;;;;;10343438;28;20220;-85
2022/11/20 22:49:03;;;;;;;46.37;25.60;;;0.20;1.00;;;;;;10351585;28;20184;-80
2022/11/20 22:54:25;;;;;;;33.63;21.23;;;0.20;1.00;;;;;;10333784;28;20211;-78
2022/11/20 22:59:46;;;;;;;38.97;21.73;;;0.10;1.00;;;;;;10334216;28;20250;-79
2022/11/20 23:05:12;;;;;;;34.60;20.93;;;0.10;2.20;;;;;;10287004;28;20204;-85
2022/11/20 23:10:33;;;;;;;38.23;21.60;;;0.20;1.00;;;;;;10286073;28;20509;-87
2022/11/20 23:15:59;;;;;;;37.00;20.83;;;0.10;1.00;;;;;;10301690;28;20242;-81
2022/11/20 23:21:20;;;;;;;47.03;26.00;;;0.20;9.90;;;;;;10273557;28;20275;-78
2022/11/20 23:26:43;;;;;;;36.10;21.60;;;0.20;16.90;;;;;;10345581;28;20191;-79
2022/11/20 23:32:05;;;;;;;33.07;19.87;;;0.10;7.90;;;;;;10361535;28;20503;-78
2022/11/20 23:37:26;;;;;;;35.53;20.53;;;0.20;1.70;;;;;;10325104;28;20207;-86
2022/11/20 23:48:30;;;;;;;33.47;19.50;;;0.20;16.60;;;;;;10338601;28;20204;-79
2022/11/20 23:53:51;;;;;;;36.27;22.20;;;0.20;16.50;;;;;;10341035;28;20200;-80
2022/11/20 23:59:13;;;;;;;38.27;23.47;;;0.20;25.80;;;;;;10336979;28;20310;-85
